Time;durP1;ratioP1;P1;durP2;ratioP2;P2;SDS_P1;SDS_P2;PMS_P1;PMS_P2;Temp;Humidity;BMP_temperature;BMP_pressure;BME280_temperature;BME280_humidity;BME280_pressure;Samples;Min_cycle;Max_cycle;Signal;HPM_P1;HPM_P2
2021/08/20 00:00:11;;;;;;;13.35;12.10;;;15.60;83.30;;;;;;4964077;29;20045;-63
2021/08/20 00:02:43;;;;;;;13.55;12.23;;;15.50;83.30;;;;;;4964804;29;20058;-64
2021/08/20 00:05:15;;;;;;;13.13;12.00;;;15.50;83.30;;;;;;4965343;29;20047;-63
2021/08/20 00:07:47;;;;;;;12.98;11.88;;;15.50;83.30;;;;;;4964189;29;20141;-63
2021/08/20 00:10:19;;;;;;;12.32;11.13;;;15.40;83.40;;;;;;4964400;29;20624;-63
2021/08/20 00:12:51;;;;;;;12.75;11.73;;;15.40;83.30;;;;;;4963613;29;20155;-63
2021/08/20 00:15:24;;;;;;;12.68;11.48;;;15.40;83.50;;;;;;4964432;29;20059;-64
2021/08/20 00:17:56;;;;;;;13.07;11.77;;;15.40;83.60;;;;;;4963560;29;20055;-63
2021/08/20 00:20:28;;;;;;;12.80;11.70;;;15.40;83.50;;;;;;4964577;29;20131;-63
2021/08/20 00:23:00;;;;;;;12.80;11.50;;;15.30;83.60;;;;;;4965015;29;20130;-64
2021/08/20 00:25:32;;;;;;;12.95;11.80;;;15.40;83.40;;;;;;4965174;29;20137;-64
2021/08/20 00:28:05;;;;;;;13.45;12.15;;;15.30;83.50;;;;;;4962722;29;20059;-64
2021/08/20 00:30:37;;;;;;;12.90;11.63;;;15.40;83.40;;;;;;4963956;29;20134;-63
2021/08/20 00:33:09;;;;;;;12.65;11.55;;;15.40;83.30;;;;;;4965728;29;20386;-63
2021/08/20 00:35:42;;;;;;;12.35;11.30;;;15.40;83.70;;;;;;4964180;29;20198;-63
2021/08/20 00:38:14;;;;;;;12.65;11.55;;;15.30;84.00;;;;;;4962990;29;20059;-66
2021/08/20 00:40:46;;;;;;;12.55;11.45;;;15.20;84.00;;;;;;4954978;29;20505;-64
2021/08/20 00:43:19;;;;;;;12.68;11.48;;;15.30;83.70;;;;;;4978114;29;20607;-64
2021/08/20 00:46:00;;;;;;;13.00;11.80;;;15.20;83.60;;;;;;4963003;29;20055;-64
2021/08/20 00:48:32;;;;;;;13.75;12.07;;;15.20;83.70;;;;;;4965036;29;20053;-64
2021/08/20 00:51:20;;;;;;;12.65;11.40;;;15.10;84.10;;;;;;4964202;29;20529;-63
2021/08/20 00:53:54;;;;;;;13.02;11.93;;;15.10;84.10;;;;;;4962667;29;20082;-63
2021/08/20 00:56:26;;;;;;;13.15;12.00;;;15.10;84.00;;;;;;4965045;29;20070;-64
2021/08/20 00:59:01;;;;;;;12.90;11.80;;;15.00;84.90;;;;;;4964223;29;20050;-63
2021/08/20 01:01:36;;;;;;;13.52;12.20;;;14.90;85.40;;;;;;4956276;29;20552;-64
2021/08/20 01:04:10;;;;;;;13.23;12.02;;;14.90;85.40;;;;;;4955250;29;20104;-64
2021/08/20 01:06:42;;;;;;;12.65;11.55;;;14.90;84.80;;;;;;4963879;29;20051;-65
2021/08/20 01:09:16;;;;;;;13.57;12.27;;;14.90;85.10;;;;;;4948015;29;20109;-63
2021/08/20 01:11:49;;;;;;;12.77;11.60;;;15.00;85.00;;;;;;4962531;29;20047;-64
2021/08/20 01:14:30;;;;;;;12.50;11.40;;;15.00;85.00;;;;;;4962822;29;20127;-63
2021/08/20 01:17:05;;;;;;;12.90;11.80;;;15.10;84.40;;;;;;4948855;29;20100;-64
2021/08/20 01:19:40;;;;;;;12.50;11.13;;;15.10;83.80;;;;;;4956587;29;20062;-63
2021/08/20 01:22:12;;;;;;;13.27;11.93;;;15.20;83.60;;;;;;4963662;29;20050;-63
2021/08/20 01:24:49;;;;;;;12.82;11.73;;;15.20;83.50;;;;;;4953739;29;20163;-64
2021/08/20 01:27:26;;;;;;;12.93;11.82;;;15.30;84.70;;;;;;4955529;29;20043;-64
2021/08/20 01:29:58;;;;;;;12.73;11.73;;;15.30;84.20;;;;;;4961436;29;20062;-63
2021/08/20 01:32:31;;;;;;;12.13;11.02;;;15.30;83.70;;;;;;4960074;29;20063;-64
2021/08/20 01:35:03;;;;;;;13.13;11.95;;;15.30;83.80;;;;;;4962200;29;20143;-64
2021/08/20 01:37:35;;;;;;;12.25;11.05;;;15.40;83.70;;;;;;4947621;29;20042;-64
2021/08/20 01:40:10;;;;;;;12.35;11.25;;;15.40;84.90;;;;;;4961741;29;20055;-64
2021/08/20 01:42:42;;;;;;;13.32;12.13;;;15.30;84.40;;;;;;4978645;29;20054;-64
2021/08/20 01:45:15;;;;;;;12.93;11.73;;;15.30;84.40;;;;;;4961199;29;20057;-64
2021/08/20 01:47:48;;;;;;;12.30;11.30;;;15.30;84.20;;;;;;4956519;29;20549;-65
2021/08/20 01:50:20;;;;;;;12.70;11.60;;;15.30;83.80;;;;;;4962458;29;20175;-64
2021/08/20 01:52:52;;;;;;;12.98;11.77;;;15.40;84.40;;;;;;4963014;29;20525;-63
2021/08/20 01:55:25;;;;;;;12.68;11.48;;;15.40;84.70;;;;;;4963563;29;20126;-63
2021/08/20 01:57:57;;;;;;;13.60;12.25;;;15.40;84.00;;;;;;4954785;29;20058;-64
2021/08/20 02:00:29;;;;;;;13.20;11.90;;;15.40;84.70;;;;;;4955455;29;20072;-63
2021/08/20 02:03:03;;;;;;;12.43;11.40;;;15.40;84.70;;;;;;4962618;29;20049;-64
2021/08/20 02:05:35;;;;;;;12.98;11.93;;;15.40;83.90;;;;;;4959623;29;20042;-63
2021/08/20 02:08:09;;;;;;;13.00;11.70;;;15.40;84.00;;;;;;4977538;29;20054;-64
2021/08/20 02:10:41;;;;;;;12.63;11.32;;;15.40;83.90;;;;;;4961279;29;20039;-64
2021/08/20 02:13:13;;;;;;;13.40;12.00;;;15.50;84.80;;;;;;4956885;29;20047;-64
2021/08/20 02:15:46;;;;;;;13.65;12.35;;;15.40;83.70;;;;;;4962033;29;20043;-63
2021/08/20 02:18:18;;;;;;;12.52;11.43;;;15.50;84.20;;;;;;4962686;29;20035;-64
2021/08/20 02:20:50;;;;;;;12.38;11.25;;;15.40;85.10;;;;;;4963911;29;20141;-65
2021/08/20 02:23:22;;;;;;;12.68;11.60;;;15.40;84.50;;;;;;4977245;29;20089;-63
2021/08/20 02:25:54;;;;;;;12.60;11.50;;;15.40;85.50;;;;;;4960954;29;20057;-65
2021/08/20 02:28:26;;;;;;;13.35;12.25;;;15.30;85.00;;;;;;4954019;29;20046;-63
2021/08/20 02:31:02;;;;;;;12.90;11.55;;;15.30;84.90;;;;;;4977646;29;20440;-65
2021/08/20 02:33:40;;;;;;;12.65;11.50;;;15.20;85.10;;;;;;4962614;29;20081;-63
2021/08/20 02:36:13;;;;;;;12.38;11.18;;;15.20;84.80;;;;;;4940968;29;20564;-64
2021/08/20 02:38:45;;;;;;;12.52;11.32;;;15.20;84.90;;;;;;4958675;29;20057;-64
2021/08/20 02:41:17;;;;;;;12.50;11.40;;;15.20;85.10;;;;;;4960613;29;20753;-64
2021/08/20 02:43:51;;;;;;;12.38;11.18;;;15.10;85.10;;;;;;4960186;29;20055;-64
2021/08/20 02:46:23;;;;;;;12.77;11.63;;;15.10;85.10;;;;;;4947100;29;20051;-64
2021/08/20 02:48:55;;;;;;;12.65;11.50;;;15.10;85.20;;;;;;4959975;29;20458;-64
2021/08/20 02:51:29;;;;;;;13.57;12.48;;;15.10;85.30;;;;;;4956752;29;20415;-64
2021/08/20 02:54:03;;;;;;;13.63;12.32;;;15.10;86.10;;;;;;4962645;29;20126;-65
2021/08/20 02:56:35;;;;;;;13.98;12.68;;;15.10;85.50;;;;;;4962446;29;20094;-65
2021/08/20 02:59:08;;;;;;;13.90;12.60;;;15.10;85.00;;;;;;4954476;29;20047;-64
2021/08/20 03:01:48;;;;;;;13.10;11.90;;;15.20;85.20;;;;;;4960130;29;20055;-64
2021/08/20 03:04:21;;;;;;;13.55;12.32;;;15.20;85.20;;;;;;4961121;29;20113;-64
2021/08/20 03:06:53;;;;;;;12.40;11.27;;;15.20;85.50;;;;;;4957504;29;20174;-65
2021/08/20 03:09:45;;;;;;;12.88;11.70;;;15.20;85.00;;;;;;4960934;29;20058;-64
2021/08/20 03:12:17;;;;;;;13.02;11.93;;;15.30;85.50;;;;;;4959757;29;20426;-65
2021/08/20 03:14:54;;;;;;;12.85;11.70;;;15.20;85.00;;;;;;4959818;29;20070;-64
2021/08/20 03:17:31;;;;;;;14.07;12.85;;;15.30;85.20;;;;;;4953738;29;20440;-64
2021/08/20 03:20:10;;;;;;;13.50;12.40;;;15.30;85.00;;;;;;4959171;29;20059;-64
2021/08/20 03:22:42;;;;;;;12.65;11.55;;;15.30;84.90;;;;;;4980635;29;20561;-64
2021/08/20 03:25:19;;;;;;;13.27;12.07;;;15.20;86.10;;;;;;4963671;29;20112;-65
2021/08/20 03:27:51;;;;;;;14.23;12.95;;;15.30;86.40;;;;;;4962653;29;20055;-64
2021/08/20 03:30:37;;;;;;;15.07;13.05;;;15.30;86.30;;;;;;4952262;29;20054;-65
2021/08/20 03:33:10;;;;;;;13.85;12.75;;;15.30;86.30;;;;;;4957781;29;20233;-64
2021/08/20 03:35:47;;;;;;;13.48;12.35;;;15.30;85.80;;;;;;4979803;29;20111;-64
2021/08/20 03:38:23;;;;;;;14.45;13.15;;;15.40;86.30;;;;;;4960398;29;20058;-63
2021/08/20 03:40:55;;;;;;;13.85;12.48;;;15.40;86.50;;;;;;4944116;29;20062;-63
2021/08/20 03:43:32;;;;;;;14.25;13.02;;;15.40;86.00;;;;;;4964752;29;20055;-64
2021/08/20 03:46:16;;;;;;;13.80;12.40;;;15.40;86.00;;;;;;4965016;29;20125;-65
2021/08/20 03:48:49;;;;;;;14.05;12.82;;;15.40;86.10;;;;;;4958105;29;20054;-64
2021/08/20 03:51:21;;;;;;;14.00;12.80;;;15.40;86.20;;;;;;4964376;29;20055;-63
2021/08/20 03:53:53;;;;;;;14.88;13.52;;;15.40;85.90;;;;;;4965287;29;20055;-63
2021/08/20 03:56:26;;;;;;;14.05;12.82;;;15.30;86.20;;;;;;4963331;29;20054;-63
2021/08/20 03:59:24;;;;;;;14.07;12.88;;;15.30;86.30;;;;;;4963003;29;20447;-63
2021/08/20 04:02:04;;;;;;;14.10;12.90;;;15.30;86.40;;;;;;4943783;29;20046;-65
2021/08/20 04:04:38;;;;;;;13.63;12.43;;;15.40;86.30;;;;;;4979872;29;20059;-63
2021/08/20 04:07:36;;;;;;;14.10;12.80;;;15.40;86.40;;;;;;4964044;29;20409;-64
2021/08/20 04:10:18;;;;;;;14.40;13.10;;;15.40;86.30;;;;;;4958588;29;20067;-64
2021/08/20 04:13:01;;;;;;;14.63;13.00;;;15.40;86.30;;;;;;4962744;29;20051;-63
2021/08/20 04:15:44;;;;;;;14.27;12.98;;;15.40;86.60;;;;;;4962835;29;20669;-64
2021/08/20 04:18:20;;;;;;;15.02;13.57;;;15.40;87.00;;;;;;4961957;29;20050;-64
2021/08/20 04:20:52;;;;;;;13.93;12.73;;;15.40;87.60;;;;;;4963509;29;20651;-64
2021/08/20 04:23:24;;;;;;;13.63;12.38;;;15.40;87.10;;;;;;4965447;29;20050;-64
2021/08/20 04:26:02;;;;;;;13.95;12.75;;;15.50;87.10;;;;;;4963687;29;20552;-65
2021/08/20 04:28:53;;;;;;;14.55;13.35;;;15.50;87.60;;;;;;4964296;29;20066;-64
2021/08/20 04:31:34;;;;;;;14.38;13.18;;;15.50;87.60;;;;;;4963452;29;20135;-64
2021/08/20 04:34:25;;;;;;;14.23;13.02;;;15.50;87.20;;;;;;4979180;29;20475;-64
2021/08/20 04:37:26;;;;;;;13.95;12.68;;;15.50;87.50;;;;;;4963074;29;20047;-63
2021/08/20 04:40:12;;;;;;;15.13;13.90;;;15.50;86.70;;;;;;4963286;29;20057;-63
2021/08/20 04:43:05;;;;;;;14.98;13.70;;;15.50;86.70;;;;;;4951760;29;20146;-65
2021/08/20 04:46:09;;;;;;;14.60;13.30;;;15.50;86.60;;;;;;4962268;29;20146;-63
2021/08/20 04:48:57;;;;;;;14.65;13.45;;;15.60;86.70;;;;;;4961414;29;20047;-63
2021/08/20 04:51:47;;;;;;;14.80;13.50;;;15.60;86.70;;;;;;4964369;29;20195;-65
2021/08/20 04:54:30;;;;;;;14.27;13.05;;;15.60;86.60;;;;;;4956408;29;20054;-63
2021/08/20 04:57:04;;;;;;;14.13;13.02;;;15.60;87.50;;;;;;4956575;29;20813;-63
2021/08/20 04:59:36;;;;;;;14.57;13.30;;;15.70;87.40;;;;;;4960056;29;20121;-63
2021/08/20 05:02:08;;;;;;;13.82;12.70;;;15.70;87.50;;;;;;4955620;29;20103;-64
2021/08/20 05:04:41;;;;;;;14.10;12.80;;;15.70;88.10;;;;;;4978196;29;20043;-63
2021/08/20 05:07:13;;;;;;;13.65;12.40;;;15.80;88.00;;;;;;4960944;29;20051;-63
2021/08/20 05:09:45;;;;;;;13.82;12.52;;;15.80;87.80;;;;;;4961082;29;20051;-63
2021/08/20 05:12:17;;;;;;;14.85;13.45;;;15.80;87.70;;;;;;4962905;29;20129;-64
2021/08/20 05:14:49;;;;;;;14.55;13.35;;;15.80;87.90;;;;;;4964327;29;20534;-64
2021/08/20 05:17:20;;;;;;;15.18;13.57;;;15.90;88.00;;;;;;4963103;29;20133;-64
2021/08/20 05:19:52;;;;;;;15.40;14.00;;;15.90;87.90;;;;;;4959359;29;20047;-64
2021/08/20 05:22:25;;;;;;;14.55;13.35;;;15.90;87.90;;;;;;4960843;29;20144;-64
2021/08/20 05:24:57;;;;;;;15.07;13.77;;;15.90;87.30;;;;;;4962652;29;20057;-64
2021/08/20 05:27:28;;;;;;;14.43;13.23;;;15.90;87.60;;;;;;4963636;29;20138;-64
2021/08/20 05:30:00;;;;;;;14.18;13.02;;;15.90;86.90;;;;;;4960782;29;20046;-64
2021/08/20 05:32:33;;;;;;;14.13;12.90;;;16.00;87.20;;;;;;4962193;29;20094;-64
2021/08/20 05:35:07;;;;;;;14.80;13.50;;;16.00;86.90;;;;;;4959398;29;20190;-64
2021/08/20 05:37:39;;;;;;;15.32;13.85;;;16.00;87.20;;;;;;4962164;29;20050;-64
2021/08/20 05:40:13;;;;;;;14.88;13.50;;;16.10;87.20;;;;;;4961889;29;20125;-65
2021/08/20 05:42:45;;;;;;;15.18;13.70;;;16.20;87.30;;;;;;4963493;29;20043;-64
2021/08/20 05:45:17;;;;;;;14.73;13.35;;;16.20;87.60;;;;;;4961337;29;21053;-64
2021/08/20 05:47:49;;;;;;;15.23;13.95;;;16.30;87.40;;;;;;4959630;29;20086;-64
2021/08/20 05:50:21;;;;;;;15.65;14.35;;;16.30;87.20;;;;;;4962778;29;20062;-64
2021/08/20 05:52:53;;;;;;;15.07;13.68;;;16.40;87.10;;;;;;4962472;29;20078;-64
2021/08/20 05:55:26;;;;;;;14.65;13.45;;;16.40;87.10;;;;;;4961611;29;20050;-64
2021/08/20 05:57:59;;;;;;;15.02;13.75;;;16.50;87.00;;;;;;4955900;29;20106;-65
2021/08/20 06:00:31;;;;;;;15.85;14.55;;;16.60;87.00;;;;;;4962447;29;20143;-64
2021/08/20 06:03:10;;;;;;;15.30;14.00;;;16.60;86.80;;;;;;4976491;29;20067;-64
2021/08/20 06:05:44;;;;;;;14.68;13.48;;;16.70;87.10;;;;;;4937670;29;20054;-65
2021/08/20 06:08:17;;;;;;;15.98;14.48;;;16.70;87.20;;;;;;4975570;29;20061;-66
2021/08/20 06:10:49;;;;;;;15.27;13.77;;;16.70;87.20;;;;;;4963204;29;20146;-65
2021/08/20 06:13:21;;;;;;;15.85;14.45;;;16.70;87.40;;;;;;4952912;29;20121;-64
2021/08/20 06:15:52;;;;;;;15.20;13.90;;;16.80;87.20;;;;;;4962069;29;20130;-64
2021/08/20 06:18:24;;;;;;;15.50;14.10;;;16.80;87.00;;;;;;4961473;29;20443;-65
2021/08/20 06:20:56;;;;;;;15.95;14.57;;;16.90;87.20;;;;;;4962474;29;20635;-66
2021/08/20 06:23:28;;;;;;;16.25;14.93;;;16.90;87.10;;;;;;4961385;29;20043;-64
2021/08/20 06:26:00;;;;;;;15.32;14.02;;;16.90;86.80;;;;;;4961053;29;20062;-65
2021/08/20 06:28:32;;;;;;;15.85;14.48;;;17.00;86.40;;;;;;4960868;29;20123;-65
2021/08/20 06:31:04;;;;;;;15.18;13.82;;;17.00;86.30;;;;;;4961423;29;20071;-65
2021/08/20 06:33:37;;;;;;;15.70;14.40;;;17.10;86.00;;;;;;4963978;29;20058;-65
2021/08/20 06:36:09;;;;;;;15.50;14.05;;;17.10;85.80;;;;;;4962668;29;21136;-65
2021/08/20 06:38:41;;;;;;;15.82;14.38;;;17.20;85.60;;;;;;4961285;29;20042;-65
2021/08/20 06:41:13;;;;;;;15.65;14.15;;;17.30;85.70;;;;;;4963377;29;20136;-65
2021/08/20 06:43:48;;;;;;;15.50;13.82;;;17.30;85.40;;;;;;4955229;29;20053;-64
2021/08/20 06:46:20;;;;;;;14.73;13.52;;;17.40;84.60;;;;;;4962776;29;20043;-65
2021/08/20 06:48:52;;;;;;;15.10;13.80;;;17.50;85.30;;;;;;4962774;29;20078;-65
2021/08/20 06:51:25;;;;;;;14.95;13.68;;;17.50;85.70;;;;;;4962680;29;20050;-66
2021/08/20 06:53:57;;;;;;;17.98;14.25;;;17.60;85.70;;;;;;4961766;29;20146;-66
2021/08/20 06:56:29;;;;;;;16.23;14.77;;;17.60;85.30;;;;;;4963290;29;20593;-66
2021/08/20 06:59:01;;;;;;;16.05;14.63;;;17.70;85.30;;;;;;4976536;29;20058;-65
2021/08/20 07:01:33;;;;;;;15.80;14.60;;;17.90;85.80;;;;;;4960591;29;20196;-66
2021/08/20 07:04:06;;;;;;;16.92;15.32;;;18.10;85.30;;;;;;4963265;29;20662;-66
2021/08/20 07:06:38;;;;;;;16.23;14.93;;;18.20;85.00;;;;;;4962209;29;20184;-65
2021/08/20 07:09:10;;;;;;;17.00;15.60;;;18.50;83.90;;;;;;4961977;29;20055;-66
2021/08/20 07:11:42;;;;;;;16.48;15.20;;;18.70;82.00;;;;;;4962245;29;20067;-66
2021/08/20 07:14:13;;;;;;;16.33;14.98;;;18.90;80.80;;;;;;4963350;29;20057;-66
2021/08/20 07:16:46;;;;;;;15.63;14.32;;;19.00;79.60;;;;;;4960593;29;20055;-66
2021/08/20 07:19:18;;;;;;;15.60;14.40;;;19.10;79.10;;;;;;4958021;29;20100;-66
2021/08/20 07:21:50;;;;;;;16.42;15.02;;;19.30;79.70;;;;;;4959635;29;20079;-66
2021/08/20 07:24:22;;;;;;;16.40;15.07;;;19.40;77.50;;;;;;4931120;29;20047;-66
2021/08/20 07:26:54;;;;;;;16.33;14.80;;;19.50;79.00;;;;;;4959948;29;20062;-66
2021/08/20 07:29:25;;;;;;;16.27;14.98;;;19.60;77.70;;;;;;4959710;29;20757;-66
2021/08/20 07:31:57;;;;;;;16.25;15.02;;;19.80;77.90;;;;;;4959422;29;20078;-66
2021/08/20 07:34:29;;;;;;;17.35;15.95;;;19.90;76.60;;;;;;4961657;29;20824;-66
2021/08/20 07:37:01;;;;;;;17.08;15.45;;;20.00;77.20;;;;;;4961400;29;20059;-66
2021/08/20 07:39:36;;;;;;;16.50;15.10;;;20.20;76.40;;;;;;4962216;29;20078;-67
2021/08/20 07:42:08;;;;;;;16.85;15.55;;;20.40;77.00;;;;;;4959889;29;20141;-67
2021/08/20 07:44:40;;;;;;;16.50;15.20;;;20.60;75.20;;;;;;4960019;29;20681;-67
2021/08/20 07:47:12;;;;;;;16.58;15.18;;;20.70;74.40;;;;;;4959356;29;20061;-67
2021/08/20 07:49:44;;;;;;;17.25;15.95;;;20.90;75.20;;;;;;4959851;29;20481;-66
2021/08/20 07:52:16;;;;;;;16.90;15.60;;;21.00;73.20;;;;;;4960049;29;20057;-66
2021/08/20 07:54:49;;;;;;;17.23;15.73;;;21.10;73.60;;;;;;4961778;29;20043;-67
2021/08/20 07:57:21;;;;;;;17.25;15.85;;;21.00;72.10;;;;;;4958158;29;20061;-66
2021/08/20 07:59:53;;;;;;;16.33;15.02;;;21.00;73.50;;;;;;4962160;29;20076;-66
2021/08/20 08:02:25;;;;;;;17.13;15.32;;;21.00;72.00;;;;;;4959338;29;20588;-66
2021/08/20 08:04:57;;;;;;;16.05;14.75;;;20.90;71.50;;;;;;4961395;29;20043;-66
2021/08/20 08:07:29;;;;;;;17.60;16.20;;;21.00;72.60;;;;;;4963875;29;20100;-66
2021/08/20 08:10:01;;;;;;;16.90;15.55;;;21.20;71.60;;;;;;4966350;29;20050;-66
2021/08/20 08:12:33;;;;;;;17.08;15.63;;;21.30;69.60;;;;;;4964072;29;20047;-66
2021/08/20 08:15:07;;;;;;;17.30;15.98;;;21.40;69.80;;;;;;4963715;29;20038;-67
2021/08/20 08:17:39;;;;;;;17.13;15.68;;;21.60;69.60;;;;;;4962737;29;20125;-67
2021/08/20 08:20:13;;;;;;;17.45;15.93;;;21.70;68.70;;;;;;4963868;29;20061;-67
2021/08/20 08:22:46;;;;;;;18.17;16.55;;;21.70;68.30;;;;;;4964445;29;20057;-66
2021/08/20 08:25:20;;;;;;;17.15;15.75;;;21.90;70.90;;;;;;4964210;29;20063;-67
2021/08/20 08:27:56;;;;;;;17.48;15.85;;;22.10;67.70;;;;;;4961267;29;20137;-66
2021/08/20 08:30:39;;;;;;;16.90;15.52;;;22.30;69.10;;;;;;4964205;29;20096;-67
2021/08/20 08:33:11;;;;;;;16.65;15.35;;;22.50;68.80;;;;;;4961868;29;20055;-66
2021/08/20 08:36:03;;;;;;;17.30;15.90;;;22.50;67.20;;;;;;4963689;29;20054;-66
2021/08/20 08:38:35;;;;;;;16.65;14.93;;;22.70;65.20;;;;;;4961673;29;20070;-67
2021/08/20 08:41:07;;;;;;;16.80;15.43;;;22.60;64.60;;;;;;4957843;29;20043;-67
2021/08/20 08:43:41;;;;;;;15.38;14.18;;;22.50;67.20;;;;;;4957066;29;20035;-67
2021/08/20 08:46:18;;;;;;;16.33;14.93;;;22.50;63.30;;;;;;4958908;29;20565;-66
2021/08/20 08:48:51;;;;;;;16.88;15.48;;;22.50;67.00;;;;;;4958543;29;20137;-67
2021/08/20 08:51:23;;;;;;;17.17;15.68;;;22.60;62.70;;;;;;4958083;29;20061;-67
2021/08/20 08:53:55;;;;;;;16.48;15.27;;;22.60;65.20;;;;;;4962778;29;20046;-67
2021/08/20 08:56:30;;;;;;;16.27;15.00;;;22.80;66.30;;;;;;4964496;29;20054;-67
2021/08/20 08:59:02;;;;;;;16.48;15.23;;;23.00;66.10;;;;;;4961134;29;20549;-66
2021/08/20 09:01:38;;;;;;;16.40;15.02;;;23.10;61.40;;;;;;4963670;29;20070;-68
2021/08/20 09:04:15;;;;;;;16.20;15.00;;;23.10;61.80;;;;;;4963868;29;20108;-66
2021/08/20 09:06:55;;;;;;;16.88;15.68;;;23.10;58.70;;;;;;4963860;29;20573;-67
2021/08/20 09:09:27;;;;;;;;;;;23.20;62.60;;;;;;4959820;29;20145;-66
2021/08/20 09:12:01;;;;;;;16.70;15.40;;;23.30;63.40;;;;;;4964471;29;20511;-66
2021/08/20 09:14:35;;;;;;;17.15;15.85;;;23.40;62.70;;;;;;4963524;29;20042;-66
2021/08/20 09:17:10;;;;;;;17.80;16.38;;;23.50;62.90;;;;;;4963612;29;20797;-66
2021/08/20 09:19:43;;;;;;;17.38;16.08;;;23.50;62.10;;;;;;4963621;29;20074;-66
2021/08/20 09:22:15;;;;;;;17.60;16.27;;;23.60;61.90;;;;;;4961764;29;20130;-66
2021/08/20 09:24:47;;;;;;;18.48;17.05;;;23.70;62.10;;;;;;4963901;29;20127;-66
2021/08/20 09:27:22;;;;;;;17.98;16.65;;;23.70;62.10;;;;;;4960426;29;20058;-66
2021/08/20 09:30:14;;;;;;;17.63;16.23;;;23.70;61.20;;;;;;4964865;29;20078;-67
2021/08/20 09:32:54;;;;;;;16.55;15.35;;;23.70;56.30;;;;;;4963111;29;20047;-67
2021/08/20 09:35:37;;;;;;;17.30;15.73;;;23.80;58.20;;;;;;4961183;29;20834;-67
2021/08/20 09:38:13;;;;;;;17.23;15.82;;;23.80;59.40;;;;;;4962710;29;20157;-67
2021/08/20 09:40:52;;;;;;;17.33;16.10;;;23.90;60.70;;;;;;4963261;29;20051;-66
2021/08/20 09:43:39;;;;;;;16.80;15.55;;;23.90;58.40;;;;;;4964759;29;20078;-66
2021/08/20 09:46:19;;;;;;;16.92;15.70;;;23.90;57.50;;;;;;4963425;29;20074;-68
2021/08/20 09:48:59;;;;;;;16.60;15.40;;;24.00;58.10;;;;;;4962175;29;20807;-66
2021/08/20 09:51:31;;;;;;;16.92;15.57;;;24.00;57.60;;;;;;4963809;29;20529;-67
2021/08/20 09:54:22;;;;;;;16.83;15.52;;;24.00;58.10;;;;;;4963073;29;20138;-67
2021/08/20 09:57:03;;;;;;;16.88;15.68;;;24.00;58.70;;;;;;4962171;29;20118;-67
2021/08/20 09:59:36;;;;;;;17.45;16.05;;;24.20;58.30;;;;;;4963016;29;20082;-66
2021/08/20 10:02:16;;;;;;;17.67;16.27;;;24.10;56.10;;;;;;4963351;29;20132;-67
2021/08/20 10:04:48;;;;;;;17.90;16.60;;;24.20;58.30;;;;;;4962889;29;20049;-67
2021/08/20 10:07:21;;;;;;;17.38;16.05;;;24.20;57.70;;;;;;4955320;29;20075;-67
2021/08/20 10:09:55;;;;;;;17.10;15.90;;;24.30;57.40;;;;;;4962443;29;20130;-67
2021/08/20 10:12:27;;;;;;;16.92;15.73;;;24.30;57.70;;;;;;4959329;29;20151;-66
2021/08/20 10:14:59;;;;;;;17.40;16.10;;;24.30;57.10;;;;;;4963301;29;20582;-67
2021/08/20 10:17:32;;;;;;;17.33;15.93;;;24.30;58.00;;;;;;4959600;29;20080;-66
2021/08/20 10:20:07;;;;;;;18.33;17.02;;;24.40;52.70;;;;;;4961441;29;20129;-66
2021/08/20 10:22:40;;;;;;;17.42;16.02;;;24.40;56.90;;;;;;4962239;29;20366;-67
2021/08/20 10:25:12;;;;;;;17.85;16.55;;;24.30;56.30;;;;;;4962785;29;20180;-67
2021/08/20 10:27:45;;;;;;;17.60;16.20;;;24.40;57.30;;;;;;4961856;29;20997;-67
2021/08/20 10:30:17;;;;;;;18.17;16.88;;;24.50;58.10;;;;;;4959397;29;20074;-67
2021/08/20 10:32:59;;;;;;;17.38;16.08;;;24.60;58.10;;;;;;4962161;29;20500;-67
2021/08/20 10:35:51;;;;;;;17.65;16.35;;;24.70;58.50;;;;;;4960192;29;20055;-67
2021/08/20 10:38:31;;;;;;;17.50;16.23;;;24.70;58.50;;;;;;4960807;29;20452;-66
2021/08/20 10:41:20;;;;;;;17.50;16.20;;;24.70;55.80;;;;;;4962326;29;20147;-67
2021/08/20 10:44:01;;;;;;;17.42;16.15;;;24.80;58.50;;;;;;4961727;29;20494;-66
2021/08/20 10:46:37;;;;;;;17.20;15.90;;;24.80;56.10;;;;;;4962318;29;20115;-67
2021/08/20 10:49:12;;;;;;;16.70;15.50;;;24.80;53.40;;;;;;4959648;29;20078;-66
2021/08/20 10:51:50;;;;;;;17.00;15.70;;;24.70;54.60;;;;;;4961275;29;20092;-66
2021/08/20 10:54:31;;;;;;;17.50;16.15;;;24.70;52.10;;;;;;4952495;29;20154;-66
2021/08/20 10:57:04;;;;;;;16.92;15.73;;;24.70;54.20;;;;;;4961312;29;20038;-67
2021/08/20 10:59:36;;;;;;;16.85;15.65;;;24.70;55.30;;;;;;4961627;29;20043;-67
2021/08/20 11:02:22;;;;;;;16.77;15.57;;;24.80;55.50;;;;;;4958264;29;20119;-66
2021/08/20 11:04:59;;;;;;;17.30;16.08;;;24.80;55.70;;;;;;4975291;29;20047;-67
2021/08/20 11:07:43;;;;;;;16.73;15.52;;;24.90;53.70;;;;;;4943195;29;20811;-67
2021/08/20 11:10:15;;;;;;;17.38;16.08;;;24.90;54.00;;;;;;4962581;29;20123;-67
2021/08/20 11:12:53;;;;;;;17.02;15.82;;;25.00;53.50;;;;;;4961431;29;20172;-68
2021/08/20 11:15:30;;;;;;;17.00;15.70;;;25.10;55.20;;;;;;4962137;29;20062;-67
2021/08/20 11:18:04;;;;;;;17.42;16.13;;;25.20;53.50;;;;;;4975328;29;20059;-67
2021/08/20 11:20:40;;;;;;;17.13;15.73;;;25.30;54.00;;;;;;4961070;29;20638;-67
2021/08/20 11:23:18;;;;;;;16.33;15.13;;;25.20;53.50;;;;;;4962468;29;20055;-67
2021/08/20 11:25:58;;;;;;;16.58;15.20;;;25.30;54.00;;;;;;4956018;29;20477;-67
2021/08/20 11:28:40;;;;;;;16.48;15.27;;;25.40;50.20;;;;;;4959600;29;20058;-67
2021/08/20 11:31:14;;;;;;;16.90;15.60;;;25.40;54.20;;;;;;4959813;29;20119;-67
2021/08/20 11:33:47;;;;;;;16.70;15.45;;;25.50;52.90;;;;;;4961795;29;20686;-67
2021/08/20 11:36:22;;;;;;;16.50;15.27;;;25.50;52.50;;;;;;4963081;29;20510;-68
2021/08/20 11:39:00;;;;;;;17.15;15.88;;;25.60;52.30;;;;;;4964984;29;20580;-66
2021/08/20 11:41:44;;;;;;;16.80;15.40;;;25.60;53.20;;;;;;4962608;29;20051;-66
2021/08/20 11:44:16;;;;;;;16.90;15.68;;;25.70;50.70;;;;;;4964310;29;20121;-68
2021/08/20 11:46:48;;;;;;;16.60;15.40;;;25.70;53.00;;;;;;4965838;29;20578;-66
2021/08/20 11:49:28;;;;;;;16.10;14.90;;;25.70;51.60;;;;;;4964018;29;20057;-66
2021/08/20 11:52:11;;;;;;;16.55;15.35;;;25.80;52.60;;;;;;4954859;29;20059;-66
2021/08/20 11:54:44;;;;;;;16.60;15.40;;;25.80;52.60;;;;;;4966745;29;20061;-66
2021/08/20 11:57:16;;;;;;;16.70;15.50;;;25.90;51.00;;;;;;4965664;29;20501;-66
2021/08/20 11:59:55;;;;;;;17.63;16.25;;;26.00;53.50;;;;;;4963429;29;20099;-67
2021/08/20 12:02:26;;;;;;;16.67;15.38;;;26.00;52.30;;;;;;4961644;29;20050;-67
2021/08/20 12:05:19;;;;;;;17.30;15.95;;;26.10;53.80;;;;;;4963487;29;20059;-66
2021/08/20 12:07:51;;;;;;;17.13;15.82;;;26.20;53.60;;;;;;4960923;29;20731;-67
2021/08/20 12:10:25;;;;;;;16.67;15.48;;;26.40;52.90;;;;;;4961568;29;20053;-68
2021/08/20 12:12:58;;;;;;;17.00;15.80;;;26.40;53.80;;;;;;4940108;29;20078;-67
2021/08/20 12:15:30;;;;;;;17.38;16.15;;;26.40;51.50;;;;;;4960098;29;20130;-66
2021/08/20 12:18:27;;;;;;;16.98;15.75;;;26.40;51.70;;;;;;4963710;29;20115;-67
2021/08/20 12:20:59;;;;;;;16.85;15.55;;;26.30;51.40;;;;;;4962576;29;20140;-66
2021/08/20 12:23:31;;;;;;;16.92;15.73;;;26.30;52.10;;;;;;4960865;29;20067;-66
2021/08/20 12:26:16;;;;;;;17.50;16.10;;;26.40;50.50;;;;;;4961902;29;20055;-67
2021/08/20 12:28:50;;;;;;;17.00;15.75;;;26.40;51.10;;;;;;4960677;29;20070;-67
2021/08/20 12:31:26;;;;;;;17.23;15.57;;;26.30;50.90;;;;;;4959542;29;20293;-66
2021/08/20 12:34:05;;;;;;;16.58;15.40;;;26.30;51.20;;;;;;4961041;29;20047;-66
2021/08/20 12:36:37;;;;;;;16.75;15.45;;;26.40;49.20;;;;;;4962505;29;20138;-66
2021/08/20 12:39:14;;;;;;;16.92;15.73;;;26.50;52.30;;;;;;4965496;29;20468;-66
2021/08/20 12:41:46;;;;;;;16.83;15.63;;;26.40;51.20;;;;;;4961688;29;20055;-67
2021/08/20 12:44:30;;;;;;;17.50;16.20;;;26.50;51.80;;;;;;4964535;29;20075;-69
2021/08/20 12:47:07;;;;;;;17.08;15.77;;;26.60;51.90;;;;;;4978749;29;20047;-68
2021/08/20 12:50:13;;;;;;;17.20;15.80;;;26.60;51.60;;;;;;4957163;29;20051;-66
2021/08/20 12:52:45;;;;;;;16.77;15.30;;;26.60;51.40;;;;;;4942146;29;20063;-67
2021/08/20 12:55:33;;;;;;;17.13;15.93;;;26.60;51.40;;;;;;4947036;29;20050;-68
2021/08/20 12:58:06;;;;;;;16.83;15.52;;;26.60;51.20;;;;;;4962481;29;20121;-66
2021/08/20 13:00:40;;;;;;;17.08;15.77;;;26.60;51.40;;;;;;4960762;29;20531;-66
2021/08/20 13:03:13;;;;;;;17.45;16.02;;;26.60;51.40;;;;;;4960634;29;20434;-67
2021/08/20 13:05:57;;;;;;;17.42;16.13;;;26.60;50.40;;;;;;4962801;29;20047;-67
2021/08/20 13:08:31;;;;;;;17.50;16.15;;;26.60;51.30;;;;;;4960705;29;20070;-66